Aviation Digital Data Service (ADDS)

Output produced by METARs form (2042 UTC 09 December 2018)
found at http://www.aviationweather.gov/metar/data/
 
METAR text: EFUT 092020Z AUTO 13009KT 4000 BR OVC002 01/01 Q0994
Conditions at: EFUT (UTTI (FIN-AFB) , FI) observed 2020 UTC 09 December 2018
Temperature: 1.0°C (34°F)
Dewpoint: 1.0°C (34°F) [RH = 100%]
Pressure (altimeter): 29.35 inches Hg (994.0 mb)
Winds: from the SE (130 degrees) at 10 MPH (9 knots; 4.6 m/s)
Visibility: 2.49 miles (4.01 km)
Ceiling: 200 feet AGL
Clouds: overcast cloud deck at 200 feet AGL
Weather: BR  (mist)

Forecast for: AMD
Text: TAF AMD EFUT 091855Z 0918/0921 14010KT 8000 -RA OVC003
Forecast period: 1800 to 2100 UTC 09 December 2018
Forecast type: FROM: standard forecast or significant change
Winds: from the SE (140 degrees) at 12 MPH (10 knots; 5.1 m/s)
Visibility: 5 miles (8 km)
Ceiling: 300 feet AGL
Clouds: overcast cloud deck at 300 feet AGL
Weather: -RA  (light rain)
Text: TEMPO 0918/0921 2000 BR VV002
Forecast period: 1800 to 2100 UTC 09 December 2018
Forecast type: TEMPORARY: The following changes expected for less than half the time period
Visibility: 1.24 miles (2.00 km)
Ceiling: indefinite ceiling with vertical visibility of 200 feet AGL
Clouds: obscured sky
Weather: BR  (mist)